sensor_id;sensor_type;location;lat;lon;timestamp;temperature;humidity
2621;DHT22;1320;48.128;11.592;2024-03-23T00:56:09;13.90;96.60
2621;DHT22;1320;48.128;11.592;2024-03-23T00:59:00;13.90;96.40
2621;DHT22;1320;48.128;11.592;2024-03-23T01:01:47;13.90;96.10
2621;DHT22;1320;48.128;11.592;2024-03-23T01:04:32;13.90;95.80
2621;DHT22;1320;48.128;11.592;2024-03-23T01:07:16;13.90;95.50
2621;DHT22;1320;48.128;11.592;2024-03-23T01:09:58;13.90;95.30
2621;DHT22;1320;48.128;11.592;2024-03-23T01:12:49;14.00;94.90
2621;DHT22;1320;48.128;11.592;2024-03-23T01:15:38;14.10;94.70
2621;DHT22;1320;48.128;11.592;2024-03-23T01:18:23;14.20;94.60
2621;DHT22;1320;48.128;11.592;2024-03-23T01:21:08;14.20;94.40
2621;DHT22;1320;48.128;11.592;2024-03-23T01:23:56;14.30;94.30
2621;DHT22;1320;48.128;11.592;2024-03-23T01:26:45;14.30;94.30
2621;DHT22;1320;48.128;11.592;2024-03-23T01:29:27;14.40;94.20
2621;DHT22;1320;48.128;11.592;2024-03-23T01:32:12;14.40;94.20
2621;DHT22;1320;48.128;11.592;2024-03-23T01:35:00;14.40;94.20
2621;DHT22;1320;48.128;11.592;2024-03-23T01:37:45;14.40;94.20
2621;DHT22;1320;48.128;11.592;2024-03-23T01:40:30;14.40;94.20
2621;DHT22;1320;48.128;11.592;2024-03-23T01:43:27;14.40;94.20
2621;DHT22;1320;48.128;11.592;2024-03-23T01:46:12;14.40;94.60
2621;DHT22;1320;48.128;11.592;2024-03-23T01:48:59;14.40;94.20
2621;DHT22;1320;48.128;11.592;2024-03-23T01:51:41;14.40;94.20
2621;DHT22;1320;48.128;11.592;2024-03-23T01:54:27;14.30;94.40
2621;DHT22;1320;48.128;11.592;2024-03-23T01:57:13;14.30;94.30
2621;DHT22;1320;48.128;11.592;2024-03-23T01:59:57;14.30;94.30
2621;DHT22;1320;48.128;11.592;2024-03-23T02:02:58;14.30;94.50
2621;DHT22;1320;48.128;11.592;2024-03-23T02:05:44;14.30;94.50
2621;DHT22;1320;48.128;11.592;2024-03-23T02:08:26;14.20;94.50
2621;DHT22;1320;48.128;11.592;2024-03-23T02:11:08;14.20;94.60
2621;DHT22;1320;48.128;11.592;2024-03-23T02:13:50;14.20;94.70
2621;DHT22;1320;48.128;11.592;2024-03-23T02:16:38;14.20;94.80
2621;DHT22;1320;48.128;11.592;2024-03-23T02:19:20;14.20;94.80
2621;DHT22;1320;48.128;11.592;2024-03-23T02:22:01;14.20;94.90
2621;DHT22;1320;48.128;11.592;2024-03-23T02:24:49;14.20;95.00
2621;DHT22;1320;48.128;11.592;2024-03-23T02:27:32;14.20;95.00
2621;DHT22;1320;48.128;11.592;2024-03-23T02:30:22;14.20;95.20
2621;DHT22;1320;48.128;11.592;2024-03-23T02:33:07;14.20;95.20
2621;DHT22;1320;48.128;11.592;2024-03-23T02:35:55;14.20;95.30
2621;DHT22;1320;48.128;11.592;2024-03-23T02:38:37;14.10;95.30
2621;DHT22;1320;48.128;11.592;2024-03-23T02:41:22;14.10;95.50
2621;DHT22;1320;48.128;11.592;2024-03-23T02:44:17;14.10;95.50
2621;DHT22;1320;48.128;11.592;2024-03-23T02:47:03;14.10;95.60
2621;DHT22;1320;48.128;11.592;2024-03-23T02:49:47;14.00;95.60
2621;DHT22;1320;48.128;11.592;2024-03-23T02:52:29;14.00;95.70
2621;DHT22;1320;48.128;11.592;2024-03-23T02:55:14;14.00;95.80
2621;DHT22;1320;48.128;11.592;2024-03-23T02:58:04;13.90;95.80
2621;DHT22;1320;48.128;11.592;2024-03-23T03:00:46;13.90;95.90
2621;DHT22;1320;48.128;11.592;2024-03-23T03:03:42;13.90;95.90
2621;DHT22;1320;48.128;11.592;2024-03-23T03:06:44;13.90;96.00
2621;DHT22;1320;48.128;11.592;2024-03-23T03:09:34;13.80;96.10
2621;DHT22;1320;48.128;11.592;2024-03-23T03:12:19;13.80;96.30
2621;DHT22;1320;48.128;11.592;2024-03-23T03:15:00;13.60;96.50
2621;DHT22;1320;48.128;11.592;2024-03-23T03:17:45;13.60;96.60
2621;DHT22;1320;48.128;11.592;2024-03-23T03:20:30;13.50;96.70
2621;DHT22;1320;48.128;11.592;2024-03-23T03:23:09;13.50;96.80
2621;DHT22;1320;48.128;11.592;2024-03-23T03:25:53;13.40;96.90
2621;DHT22;1320;48.128;11.592;2024-03-23T03:28:35;13.40;97.10
2621;DHT22;1320;48.128;11.592;2024-03-23T03:31:20;13.40;97.10
2621;DHT22;1320;48.128;11.592;2024-03-23T03:34:05;13.40;97.20
2621;DHT22;1320;48.128;11.592;2024-03-23T03:36:46;13.30;97.30
2621;DHT22;1320;48.128;11.592;2024-03-23T03:39:31;13.30;97.30
2621;DHT22;1320;48.128;11.592;2024-03-23T03:42:10;13.30;97.40
2621;DHT22;1320;48.128;11.592;2024-03-23T03:44:52;13.10;97.50
2621;DHT22;1320;48.128;11.592;2024-03-23T03:47:39;13.10;97.60
2621;DHT22;1320;48.128;11.592;2024-03-23T03:50:21;13.00;97.70
2621;DHT22;1320;48.128;11.592;2024-03-23T03:53:06;12.90;97.80
2621;DHT22;1320;48.128;11.592;2024-03-23T03:55:47;12.90;97.90
2621;DHT22;1320;48.128;11.592;2024-03-23T03:58:32;12.90;98.00
2621;DHT22;1320;48.128;11.592;2024-03-23T04:01:17;12.90;98.00
2621;DHT22;1320;48.128;11.592;2024-03-23T04:03:59;12.80;98.00
2621;DHT22;1320;48.128;11.592;2024-03-23T04:06:37;12.80;98.10
2621;DHT22;1320;48.128;11.592;2024-03-23T04:09:22;12.80;98.10
2621;DHT22;1320;48.128;11.592;2024-03-23T04:12:07;12.90;98.10
2621;DHT22;1320;48.128;11.592;2024-03-23T04:14:51;12.90;98.00
2621;DHT22;1320;48.128;11.592;2024-03-23T04:17:37;12.90;97.80
2621;DHT22;1320;48.128;11.592;2024-03-23T04:20:24;13.00;97.70
2621;DHT22;1320;48.128;11.592;2024-03-23T04:23:12;13.00;97.60
2621;DHT22;1320;48.128;11.592;2024-03-23T04:25:51;13.00;97.60
2621;DHT22;1320;48.128;11.592;2024-03-23T04:28:38;13.10;97.50
2621;DHT22;1320;48.128;11.592;2024-03-23T04:31:23;13.20;97.20
2621;DHT22;1320;48.128;11.592;2024-03-23T04:34:10;13.20;97.10
2621;DHT22;1320;48.128;11.592;2024-03-23T04:36:52;13.20;97.00
2621;DHT22;1320;48.128;11.592;2024-03-23T04:39:41;13.30;96.90
2621;DHT22;1320;48.128;11.592;2024-03-23T04:42:26;13.30;96.70
2621;DHT22;1320;48.128;11.592;2024-03-23T04:45:08;13.40;96.70
2621;DHT22;1320;48.128;11.592;2024-03-23T04:47:49;13.40;96.60
2621;DHT22;1320;48.128;11.592;2024-03-23T04:50:49;13.50;96.60
2621;DHT22;1320;48.128;11.592;2024-03-23T04:53:31;13.50;96.40
2621;DHT22;1320;48.128;11.592;2024-03-23T04:56:21;13.50;96.50
2621;DHT22;1320;48.128;11.592;2024-03-23T04:59:06;13.60;96.40
2621;DHT22;1320;48.128;11.592;2024-03-23T05:01:51;13.60;96.20
2621;DHT22;1320;48.128;11.592;2024-03-23T05:04:35;13.50;96.20
2621;DHT22;1320;48.128;11.592;2024-03-23T05:07:20;13.50;96.30
2621;DHT22;1320;48.128;11.592;2024-03-23T05:10:02;13.50;96.30
2621;DHT22;1320;48.128;11.592;2024-03-23T05:12:44;13.40;96.40
2621;DHT22;1320;48.128;11.592;2024-03-23T05:15:25;13.30;96.50
2621;DHT22;1320;48.128;11.592;2024-03-23T05:18:11;13.10;96.50
2621;DHT22;1320;48.128;11.592;2024-03-23T05:20:55;13.00;96.60
2621;DHT22;1320;48.128;11.592;2024-03-23T05:23:42;13.00;96.80
2621;DHT22;1320;48.128;11.592;2024-03-23T05:26:27;12.90;96.80
2621;DHT22;1320;48.128;11.592;2024-03-23T05:29:18;12.80;96.90
2621;DHT22;1320;48.128;11.592;2024-03-23T05:32:03;12.80;97.00
2621;DHT22;1320;48.128;11.592;2024-03-23T05:34:47;12.60;97.10
2621;DHT22;1320;48.128;11.592;2024-03-23T05:37:29;12.60;97.10
2621;DHT22;1320;48.128;11.592;2024-03-23T05:40:20;12.50;97.30
2621;DHT22;1320;48.128;11.592;2024-03-23T05:43:01;12.50;97.40
2621;DHT22;1320;48.128;11.592;2024-03-23T05:46:10;12.50;97.50
2621;DHT22;1320;48.128;11.592;2024-03-23T05:48:55;12.50;97.50
2621;DHT22;1320;48.128;11.592;2024-03-23T05:51:45;12.50;97.60
2621;DHT22;1320;48.128;11.592;2024-03-23T05:54:26;12.50;98.00
2621;DHT22;1320;48.128;11.592;2024-03-23T05:57:11;12.50;98.40
2621;DHT22;1320;48.128;11.592;2024-03-23T06:02:26;12.50;97.10
2621;DHT22;1320;48.128;11.592;2024-03-23T06:05:16;12.50;97.20
2621;DHT22;1320;48.128;11.592;2024-03-23T06:08:01;12.50;97.30
2621;DHT22;1320;48.128;11.592;2024-03-23T06:10:46;12.60;97.20
2621;DHT22;1320;48.128;11.592;2024-03-23T06:13:43;12.70;97.20
2621;DHT22;1320;48.128;11.592;2024-03-23T06:16:24;12.80;97.10
2621;DHT22;1320;48.128;11.592;2024-03-23T06:19:21;12.80;97.10
2621;DHT22;1320;48.128;11.592;2024-03-23T06:22:06;12.90;96.90
2621;DHT22;1320;48.128;11.592;2024-03-23T06:24:51;13.10;96.80
2621;DHT22;1320;48.128;11.592;2024-03-23T06:27:45;13.10;96.70
2621;DHT22;1320;48.128;11.592;2024-03-23T06:30:27;13.10;96.60
2621;DHT22;1320;48.128;11.592;2024-03-23T06:33:27;13.10;96.50
2621;DHT22;1320;48.128;11.592;2024-03-23T06:36:18;13.20;96.30
2621;DHT22;1320;48.128;11.592;2024-03-23T06:38:59;13.20;96.30
2621;DHT22;1320;48.128;11.592;2024-03-23T06:41:42;13.30;96.30
2621;DHT22;1320;48.128;11.592;2024-03-23T06:44:27;13.30;96.30
2621;DHT22;1320;48.128;11.592;2024-03-23T06:47:28;13.40;96.20
2621;DHT22;1320;48.128;11.592;2024-03-23T06:50:13;13.50;96.10
2621;DHT22;1320;48.128;11.592;2024-03-23T06:55:55;13.70;95.90
2621;DHT22;1320;48.128;11.592;2024-03-23T06:58:37;13.80;95.70
2621;DHT22;1320;48.128;11.592;2024-03-23T07:01:12;13.90;95.60
2621;DHT22;1320;48.128;11.592;2024-03-23T07:03:55;14.00;95.70
2621;DHT22;1320;48.128;11.592;2024-03-23T07:06:47;14.20;95.60
2621;DHT22;1320;48.128;11.592;2024-03-23T07:09:29;14.40;95.40
2621;DHT22;1320;48.128;11.592;2024-03-23T07:12:10;14.70;95.50
2621;DHT22;1320;48.128;11.592;2024-03-23T07:14:52;14.90;95.30
2621;DHT22;1320;48.128;11.592;2024-03-23T07:17:40;15.10;95.00
2621;DHT22;1320;48.128;11.592;2024-03-23T07:20:21;15.30;95.30
2621;DHT22;1320;48.128;11.592;2024-03-23T07:23:01;15.40;95.00
2621;DHT22;1320;48.128;11.592;2024-03-23T07:26:35;15.60;95.00
2621;DHT22;1320;48.128;11.592;2024-03-23T07:29:15;15.70;94.80
2621;DHT22;1320;48.128;11.592;2024-03-23T07:32:00;15.80;94.90
2621;DHT22;1320;48.128;11.592;2024-03-23T07:34:44;15.90;94.70
2621;DHT22;1320;48.128;11.592;2024-03-23T07:37:26;16.00;94.40
2621;DHT22;1320;48.128;11.592;2024-03-23T07:40:16;16.10;94.60
2621;DHT22;1320;48.128;11.592;2024-03-23T07:43:16;16.20;94.40
2621;DHT22;1320;48.128;11.592;2024-03-23T07:45:58;16.30;94.50
2621;DHT22;1320;48.128;11.592;2024-03-23T07:48:40;16.30;94.80
2621;DHT22;1320;48.128;11.592;2024-03-23T07:51:40;16.20;96.10
2621;DHT22;1320;48.128;11.592;2024-03-23T07:54:31;15.80;98.50
2621;DHT22;1320;48.128;11.592;2024-03-23T07:57:12;15.40;99.70
2621;DHT22;1320;48.128;11.592;2024-03-23T08:00:00;14.90;99.90
2621;DHT22;1320;48.128;11.592;2024-03-23T08:02:41;14.50;99.90
2621;DHT22;1320;48.128;11.592;2024-03-23T08:05:25;14.10;99.90
2621;DHT22;1320;48.128;11.592;2024-03-23T08:08:06;13.70;99.90
2621;DHT22;1320;48.128;11.592;2024-03-23T08:11:00;13.40;99.90
2621;DHT22;1320;48.128;11.592;2024-03-23T08:13:50;13.20;99.90
2621;DHT22;1320;48.128;11.592;2024-03-23T08:17:02;12.90;99.90
2621;DHT22;1320;48.128;11.592;2024-03-23T08:19:43;12.60;99.90
2621;DHT22;1320;48.128;11.592;2024-03-23T08:22:25;12.40;99.90
2621;DHT22;1320;48.128;11.592;2024-03-23T08:25:10;12.20;99.90
2621;DHT22;1320;48.128;11.592;2024-03-23T08:27:57;12.00;99.90
2621;DHT22;1320;48.128;11.592;2024-03-23T08:30:40;12.00;99.90
2621;DHT22;1320;48.128;11.592;2024-03-23T08:33:27;11.80;99.90
2621;DHT22;1320;48.128;11.592;2024-03-23T08:36:18;11.80;99.90
2621;DHT22;1320;48.128;11.592;2024-03-23T08:39:13;11.70;99.90
2621;DHT22;1320;48.128;11.592;2024-03-23T08:41:52;11.60;99.90
2621;DHT22;1320;48.128;11.592;2024-03-23T08:44:58;11.40;99.90
2621;DHT22;1320;48.128;11.592;2024-03-23T08:47:43;11.30;99.90
2621;DHT22;1320;48.128;11.592;2024-03-23T08:50:30;11.10;99.90
2621;DHT22;1320;48.128;11.592;2024-03-23T08:53:11;11.00;99.90
2621;DHT22;1320;48.128;11.592;2024-03-23T08:56:00;10.90;99.90
2621;DHT22;1320;48.128;11.592;2024-03-23T08:58:39;10.80;99.90
2621;DHT22;1320;48.128;11.592;2024-03-23T09:01:21;10.70;99.90
2621;DHT22;1320;48.128;11.592;2024-03-23T09:04:03;10.70;99.90
2621;DHT22;1320;48.128;11.592;2024-03-23T09:06:42;10.70;99.90
2621;DHT22;1320;48.128;11.592;2024-03-23T09:09:27;10.70;99.90
2621;DHT22;1320;48.128;11.592;2024-03-23T09:12:12;10.70;99.90
2621;DHT22;1320;48.128;11.592;2024-03-23T09:15:15;10.60;99.90
2621;DHT22;1320;48.128;11.592;2024-03-23T09:17:56;10.60;99.90
2621;DHT22;1320;48.128;11.592;2024-03-23T09:20:35;10.50;99.90
2621;DHT22;1320;48.128;11.592;2024-03-23T09:23:19;10.50;99.90
2621;DHT22;1320;48.128;11.592;2024-03-23T09:26:02;10.50;99.90
2621;DHT22;1320;48.128;11.592;2024-03-23T09:28:47;10.50;99.90
2621;DHT22;1320;48.128;11.592;2024-03-23T09:31:32;10.50;99.90
2621;DHT22;1320;48.128;11.592;2024-03-23T09:34:14;10.60;99.90
2621;DHT22;1320;48.128;11.592;2024-03-23T09:36:53;10.60;99.90
2621;DHT22;1320;48.128;11.592;2024-03-23T09:39:38;10.50;99.90
2621;DHT22;1320;48.128;11.592;2024-03-23T09:42:25;10.50;99.90
2621;DHT22;1320;48.128;11.592;2024-03-23T09:45:29;10.50;99.90
2621;DHT22;1320;48.128;11.592;2024-03-23T09:48:17;10.40;99.90
2621;DHT22;1320;48.128;11.592;2024-03-23T09:51:08;10.20;99.90
2621;DHT22;1320;48.128;11.592;2024-03-23T09:53:58;10.10;99.90
2621;DHT22;1320;48.128;11.592;2024-03-23T09:56:42;10.00;99.90
2621;DHT22;1320;48.128;11.592;2024-03-23T09:59:25;9.90;99.90
2621;DHT22;1320;48.128;11.592;2024-03-23T10:02:31;9.90;99.90
2621;DHT22;1320;48.128;11.592;2024-03-23T10:05:30;9.90;99.90
2621;DHT22;1320;48.128;11.592;2024-03-23T10:08:34;9.80;99.90
2621;DHT22;1320;48.128;11.592;2024-03-23T10:11:40;9.70;99.90
2621;DHT22;1320;48.128;11.592;2024-03-23T10:14:40;9.50;99.90
2621;DHT22;1320;48.128;11.592;2024-03-23T10:17:36;9.30;99.90
2621;DHT22;1320;48.128;11.592;2024-03-23T10:20:24;9.30;99.90
2621;DHT22;1320;48.128;11.592;2024-03-23T10:23:27;9.20;99.90
2621;DHT22;1320;48.128;11.592;2024-03-23T10:26:27;9.20;99.90
2621;DHT22;1320;48.128;11.592;2024-03-23T10:29:20;9.30;99.90
2621;DHT22;1320;48.128;11.592;2024-03-23T10:32:18;9.30;99.90
2621;DHT22;1320;48.128;11.592;2024-03-23T10:35:24;9.40;99.90
2621;DHT22;1320;48.128;11.592;2024-03-23T10:38:19;9.40;99.90
2621;DHT22;1320;48.128;11.592;2024-03-23T10:41:02;9.40;99.90
2621;DHT22;1320;48.128;11.592;2024-03-23T10:43:58;9.40;99.90
2621;DHT22;1320;48.128;11.592;2024-03-23T10:46:48;9.40;99.90
2621;DHT22;1320;48.128;11.592;2024-03-23T10:49:57;9.40;99.90
2621;DHT22;1320;48.128;11.592;2024-03-23T10:52:59;9.40;99.90
2621;DHT22;1320;48.128;11.592;2024-03-23T10:55:43;9.30;99.90
2621;DHT22;1320;48.128;11.592;2024-03-23T11:01:58;8.90;99.90
2621;DHT22;1320;48.128;11.592;2024-03-23T11:04:41;8.80;99.90
2621;DHT22;1320;48.128;11.592;2024-03-23T11:07:36;8.80;99.90
2621;DHT22;1320;48.128;11.592;2024-03-23T11:10:41;8.80;99.90
2621;DHT22;1320;48.128;11.592;2024-03-23T11:13:42;8.80;99.90
2621;DHT22;1320;48.128;11.592;2024-03-23T11:16:44;8.80;99.90
2621;DHT22;1320;48.128;11.592;2024-03-23T11:19:46;8.90;99.90
2621;DHT22;1320;48.128;11.592;2024-03-23T11:23:04;9.00;99.90
2621;DHT22;1320;48.128;11.592;2024-03-23T11:25:49;9.10;99.90
2621;DHT22;1320;48.128;11.592;2024-03-23T11:28:34;9.20;99.90
2621;DHT22;1320;48.128;11.592;2024-03-23T11:31:16;9.20;99.90
2621;DHT22;1320;48.128;11.592;2024-03-23T11:34:14;9.30;99.90
2621;DHT22;1320;48.128;11.592;2024-03-23T11:37:07;9.40;99.90
2621;DHT22;1320;48.128;11.592;2024-03-23T11:39:52;9.50;99.90
2621;DHT22;1320;48.128;11.592;2024-03-23T11:42:37;9.60;99.90
2621;DHT22;1320;48.128;11.592;2024-03-23T11:45:23;9.70;99.90
2621;DHT22;1320;48.128;11.592;2024-03-23T11:48:18;9.70;99.90
2621;DHT22;1320;48.128;11.592;2024-03-23T11:51:06;9.80;99.90
2621;DHT22;1320;48.128;11.592;2024-03-23T11:53:45;9.90;99.90
2621;DHT22;1320;48.128;11.592;2024-03-23T11:56:36;10.00;99.90
2621;DHT22;1320;48.128;11.592;2024-03-23T11:59:32;10.10;99.90
2621;DHT22;1320;48.128;11.592;2024-03-23T12:02:20;10.20;99.90
2621;DHT22;1320;48.128;11.592;2024-03-23T12:05:13;10.30;99.90
2621;DHT22;1320;48.128;11.592;2024-03-23T12:07:57;10.30;99.90
2621;DHT22;1320;48.128;11.592;2024-03-23T12:11:15;10.30;99.90
2621;DHT22;1320;48.128;11.592;2024-03-23T12:14:21;10.40;99.90
2621;DHT22;1320;48.128;11.592;2024-03-23T12:20:23;10.40;99.90
2621;DHT22;1320;48.128;11.592;2024-03-23T12:23:17;10.40;99.90
2621;DHT22;1320;48.128;11.592;2024-03-23T12:26:14;10.30;99.90
2621;DHT22;1320;48.128;11.592;2024-03-23T12:29:03;10.10;99.90
2621;DHT22;1320;48.128;11.592;2024-03-23T12:31:48;9.80;99.90
2621;DHT22;1320;48.128;11.592;2024-03-23T12:34:33;9.70;99.90
2621;DHT22;1320;48.128;11.592;2024-03-23T12:37:18;9.60;99.90
2621;DHT22;1320;48.128;11.592;2024-03-23T12:39:55;9.70;99.90
2621;DHT22;1320;48.128;11.592;2024-03-23T12:52:17;9.90;99.90
2621;DHT22;1320;48.128;11.592;2024-03-23T12:55:10;10.10;99.90
2621;DHT22;1320;48.128;11.592;2024-03-23T13:01:12;10.20;99.90
2621;DHT22;1320;48.128;11.592;2024-03-23T13:03:52;10.30;99.90
2621;DHT22;1320;48.128;11.592;2024-03-23T13:06:55;10.40;99.90
2621;DHT22;1320;48.128;11.592;2024-03-23T13:09:41;10.50;99.90
2621;DHT22;1320;48.128;11.592;2024-03-23T13:12:23;10.60;99.90
2621;DHT22;1320;48.128;11.592;2024-03-23T13:15:08;10.70;99.90
2621;DHT22;1320;48.128;11.592;2024-03-23T13:17:58;10.80;99.90
2621;DHT22;1320;48.128;11.592;2024-03-23T13:20:46;10.90;99.90
2621;DHT22;1320;48.128;11.592;2024-03-23T13:23:31;10.80;99.90
2621;DHT22;1320;48.128;11.592;2024-03-23T13:26:17;10.80;99.90
2621;DHT22;1320;48.128;11.592;2024-03-23T13:29:02;10.90;99.90
2621;DHT22;1320;48.128;11.592;2024-03-23T13:31:55;10.90;99.90
2621;DHT22;1320;48.128;11.592;2024-03-23T13:34:38;10.90;99.90
2621;DHT22;1320;48.128;11.592;2024-03-23T13:37:26;10.80;99.90
2621;DHT22;1320;48.128;11.592;2024-03-23T13:40:10;10.80;99.90
2621;DHT22;1320;48.128;11.592;2024-03-23T13:46:55;10.80;99.90
2621;DHT22;1320;48.128;11.592;2024-03-23T13:49:40;10.70;99.90
2621;DHT22;1320;48.128;11.592;2024-03-23T13:52:30;10.70;99.90
2621;DHT22;1320;48.128;11.592;2024-03-23T13:55:12;10.60;99.90
2621;DHT22;1320;48.128;11.592;2024-03-23T13:57:51;10.50;99.90
2621;DHT22;1320;48.128;11.592;2024-03-23T14:00:35;10.40;99.90
2621;DHT22;1320;48.128;11.592;2024-03-23T14:03:33;10.40;99.90
2621;DHT22;1320;48.128;11.592;2024-03-23T14:06:17;10.10;99.90
2621;DHT22;1320;48.128;11.592;2024-03-23T14:09:11;9.70;99.90
2621;DHT22;1320;48.128;11.592;2024-03-23T14:11:57;9.10;99.90
2621;DHT22;1320;48.128;11.592;2024-03-23T14:14:45;8.80;99.90
2621;DHT22;1320;48.128;11.592;2024-03-23T14:17:29;8.60;99.90
2621;DHT22;1320;48.128;11.592;2024-03-23T14:20:22;8.40;99.90
2621;DHT22;1320;48.128;11.592;2024-03-23T14:26:57;8.30;99.90
2621;DHT22;1320;48.128;11.592;2024-03-23T14:30:02;8.30;99.90
2621;DHT22;1320;48.128;11.592;2024-03-23T14:32:52;8.40;99.90
2621;DHT22;1320;48.128;11.592;2024-03-23T14:35:30;8.50;99.90
2621;DHT22;1320;48.128;11.592;2024-03-23T14:38:26;8.60;99.90
2621;DHT22;1320;48.128;11.592;2024-03-23T14:41:11;8.70;99.90
2621;DHT22;1320;48.128;11.592;2024-03-23T14:44:11;8.70;99.90
2621;DHT22;1320;48.128;11.592;2024-03-23T14:50:19;8.80;99.90
2621;DHT22;1320;48.128;11.592;2024-03-23T14:55:45;8.80;99.90
2621;DHT22;1320;48.128;11.592;2024-03-23T14:58:44;8.80;99.90
2621;DHT22;1320;48.128;11.592;2024-03-23T15:01:29;8.80;99.90
2621;DHT22;1320;48.128;11.592;2024-03-23T15:04:17;8.80;99.90
2621;DHT22;1320;48.128;11.592;2024-03-23T15:06:59;8.80;99.90
2621;DHT22;1320;48.128;11.592;2024-03-23T15:09:41;8.60;99.90
2621;DHT22;1320;48.128;11.592;2024-03-23T15:12:23;8.50;99.90
2621;DHT22;1320;48.128;11.592;2024-03-23T15:15:08;8.10;99.90
2621;DHT22;1320;48.128;11.592;2024-03-23T15:17:52;7.80;99.90
2621;DHT22;1320;48.128;11.592;2024-03-23T15:20:40;7.70;99.90
2621;DHT22;1320;48.128;11.592;2024-03-23T15:23:27;7.50;99.90
2621;DHT22;1320;48.128;11.592;2024-03-23T15:26:12;7.40;99.90
2621;DHT22;1320;48.128;11.592;2024-03-23T15:28:59;7.30;99.90
2621;DHT22;1320;48.128;11.592;2024-03-23T15:32:02;7.40;99.90
2621;DHT22;1320;48.128;11.592;2024-03-23T15:34:44;7.50;99.90
2621;DHT22;1320;48.128;11.592;2024-03-23T15:37:26;7.60;99.90
2621;DHT22;1320;48.128;11.592;2024-03-23T15:40:10;7.70;99.90
2621;DHT22;1320;48.128;11.592;2024-03-23T15:42:54;7.90;99.90
2621;DHT22;1320;48.128;11.592;2024-03-23T15:45:36;8.10;99.90
2621;DHT22;1320;48.128;11.592;2024-03-23T15:48:18;8.20;99.90
2621;DHT22;1320;48.128;11.592;2024-03-23T15:51:07;8.40;99.90
2621;DHT22;1320;48.128;11.592;2024-03-23T15:53:44;8.60;99.90
2621;DHT22;1320;48.128;11.592;2024-03-23T15:56:34;8.90;99.90
2621;DHT22;1320;48.128;11.592;2024-03-23T15:59:13;9.40;99.90
2621;DHT22;1320;48.128;11.592;2024-03-23T16:01:58;10.00;99.90
2621;DHT22;1320;48.128;11.592;2024-03-23T16:04:55;10.60;99.90
2621;DHT22;1320;48.128;11.592;2024-03-23T16:07:31;11.30;99.90
2621;DHT22;1320;48.128;11.592;2024-03-23T16:10:21;11.70;99.90
2621;DHT22;1320;48.128;11.592;2024-03-23T16:13:14;11.90;99.90
2621;DHT22;1320;48.128;11.592;2024-03-23T16:16:22;11.50;99.90
2621;DHT22;1320;48.128;11.592;2024-03-23T16:19:06;11.10;99.90
2621;DHT22;1320;48.128;11.592;2024-03-23T16:21:45;10.60;99.90
2621;DHT22;1320;48.128;11.592;2024-03-23T16:24:35;10.20;99.90
2621;DHT22;1320;48.128;11.592;2024-03-23T16:27:13;10.00;99.90
2621;DHT22;1320;48.128;11.592;2024-03-23T16:29:58;9.70;99.90
2621;DHT22;1320;48.128;11.592;2024-03-23T16:32:40;9.60;99.90
2621;DHT22;1320;48.128;11.592;2024-03-23T16:35:22;9.40;99.90
2621;DHT22;1320;48.128;11.592;2024-03-23T16:38:03;9.30;99.90
2621;DHT22;1320;48.128;11.592;2024-03-23T16:41:04;9.10;99.90
2621;DHT22;1320;48.128;11.592;2024-03-23T16:43:49;9.00;99.90
2621;DHT22;1320;48.128;11.592;2024-03-23T16:46:20;8.80;99.90
2621;DHT22;1320;48.128;11.592;2024-03-23T16:49:02;8.80;99.90
2621;DHT22;1320;48.128;11.592;2024-03-23T16:51:40;8.80;99.90
2621;DHT22;1320;48.128;11.592;2024-03-23T16:54:40;8.70;99.90
2621;DHT22;1320;48.128;11.592;2024-03-23T16:57:22;8.60;99.90
2621;DHT22;1320;48.128;11.592;2024-03-23T17:00:03;8.60;99.90
2621;DHT22;1320;48.128;11.592;2024-03-23T17:03:00;8.60;99.90
2621;DHT22;1320;48.128;11.592;2024-03-23T17:05:45;8.60;99.90
2621;DHT22;1320;48.128;11.592;2024-03-23T17:08:26;8.70;99.90
2621;DHT22;1320;48.128;11.592;2024-03-23T17:11:11;8.60;99.90
2621;DHT22;1320;48.128;11.592;2024-03-23T17:13:55;8.60;99.90
2621;DHT22;1320;48.128;11.592;2024-03-23T17:16:43;8.50;99.90
2621;DHT22;1320;48.128;11.592;2024-03-23T17:19:21;8.50;99.90
2621;DHT22;1320;48.128;11.592;2024-03-23T17:22:06;8.40;99.90
2621;DHT22;1320;48.128;11.592;2024-03-23T17:25:03;8.30;99.90
2621;DHT22;1320;48.128;11.592;2024-03-23T17:27:48;8.10;99.90
2621;DHT22;1320;48.128;11.592;2024-03-23T17:30:27;7.90;99.90
2621;DHT22;1320;48.128;11.592;2024-03-23T17:36:00;7.30;99.90
2621;DHT22;1320;48.128;11.592;2024-03-23T17:38:46;6.90;99.90
2621;DHT22;1320;48.128;11.592;2024-03-23T17:41:27;6.50;99.90
2621;DHT22;1320;48.128;11.592;2024-03-23T17:44:21;6.10;99.90
2621;DHT22;1320;48.128;11.592;2024-03-23T17:47:06;5.80;99.90
2621;DHT22;1320;48.128;11.592;2024-03-23T17:49:56;5.70;99.90
2621;DHT22;1320;48.128;11.592;2024-03-23T17:52:42;5.70;99.90
2621;DHT22;1320;48.128;11.592;2024-03-23T17:55:23;5.70;99.90
2621;DHT22;1320;48.128;11.592;2024-03-23T17:58:05;5.80;99.90
2621;DHT22;1320;48.128;11.592;2024-03-23T18:01:29;5.80;99.90
2621;DHT22;1320;48.128;11.592;2024-03-23T18:03:56;5.90;99.90
2621;DHT22;1320;48.128;11.592;2024-03-23T18:06:46;5.90;99.90
2621;DHT22;1320;48.128;11.592;2024-03-23T18:09:29;6.00;99.90
2621;DHT22;1320;48.128;11.592;2024-03-23T18:12:15;6.10;99.90
2621;DHT22;1320;48.128;11.592;2024-03-23T18:14:59;6.10;99.90
2621;DHT22;1320;48.128;11.592;2024-03-23T18:17:41;6.20;99.90
2621;DHT22;1320;48.128;11.592;2024-03-23T18:20:26;6.30;99.90
2621;DHT22;1320;48.128;11.592;2024-03-23T18:23:11;6.30;99.90
2621;DHT22;1320;48.128;11.592;2024-03-23T18:25:59;6.20;99.90
2621;DHT22;1320;48.128;11.592;2024-03-23T18:28:41;6.20;99.90
2621;DHT22;1320;48.128;11.592;2024-03-23T18:31:24;6.10;99.90
2621;DHT22;1320;48.128;11.592;2024-03-23T18:34:09;6.10;99.90
2621;DHT22;1320;48.128;11.592;2024-03-23T18:36:51;6.10;99.90
2621;DHT22;1320;48.128;11.592;2024-03-23T18:39:39;6.00;99.90
2621;DHT22;1320;48.128;11.592;2024-03-23T18:42:21;6.00;99.90
2621;DHT22;1320;48.128;11.592;2024-03-23T18:45:12;6.10;99.90
2621;DHT22;1320;48.128;11.592;2024-03-23T18:47:58;6.00;99.90
2621;DHT22;1320;48.128;11.592;2024-03-23T18:50:43;6.00;99.90
2621;DHT22;1320;48.128;11.592;2024-03-23T18:53:34;5.90;99.90
2621;DHT22;1320;48.128;11.592;2024-03-23T18:56:15;5.90;99.90
2621;DHT22;1320;48.128;11.592;2024-03-23T18:59:00;5.80;99.90
2621;DHT22;1320;48.128;11.592;2024-03-23T19:01:45;5.60;99.90
2621;DHT22;1320;48.128;11.592;2024-03-23T19:04:27;5.60;99.90
2621;DHT22;1320;48.128;11.592;2024-03-23T19:07:12;5.60;99.90
2621;DHT22;1320;48.128;11.592;2024-03-23T19:09:50;5.60;99.90
2621;DHT22;1320;48.128;11.592;2024-03-23T19:12:41;5.60;99.90
2621;DHT22;1320;48.128;11.592;2024-03-23T19:15:23;5.60;99.90
2621;DHT22;1320;48.128;11.592;2024-03-23T19:18:07;5.60;99.90
2621;DHT22;1320;48.128;11.592;2024-03-23T19:20:46;5.50;99.90
2621;DHT22;1320;48.128;11.592;2024-03-23T19:23:35;5.50;99.90
2621;DHT22;1320;48.128;11.592;2024-03-23T19:26:34;5.50;99.90
2621;DHT22;1320;48.128;11.592;2024-03-23T19:29:16;5.60;99.90
2621;DHT22;1320;48.128;11.592;2024-03-23T19:31:58;5.70;99.90
2621;DHT22;1320;48.128;11.592;2024-03-23T19:34:51;5.70;99.90
2621;DHT22;1320;48.128;11.592;2024-03-23T19:37:33;5.80;99.90